createdAt,value
2023-04-06T00:00:47.937Z,1005.11
2023-04-06T00:01:47.972Z,1005.03
2023-04-06T00:02:48.023Z,1005.08
2023-04-06T00:03:48.007Z,1005.10
2023-04-06T00:04:47.887Z,1005.01
2023-04-06T00:05:47.872Z,1004.98
2023-04-06T00:06:47.863Z,1004.93
2023-04-06T00:07:47.846Z,1004.98
2023-04-06T00:08:47.876Z,1004.97
2023-04-06T00:09:47.824Z,1004.99
2023-04-06T00:10:47.807Z,1004.94
2023-04-06T00:11:47.796Z,1004.91
2023-04-06T00:12:47.777Z,1004.95
2023-04-06T00:13:47.781Z,1004.93
2023-04-06T00:14:47.752Z,1004.90
2023-04-06T00:15:47.786Z,1004.89
2023-04-06T00:16:47.809Z,1004.90
2023-04-06T00:17:47.779Z,1004.86
2023-04-06T00:18:47.713Z,1004.89
2023-04-06T00:19:47.694Z,1004.88
2023-04-06T00:20:47.689Z,1004.90
2023-04-06T00:21:47.724Z,1004.85
2023-04-06T00:22:47.668Z,1004.85
2023-04-06T00:23:47.775Z,1004.84
2023-04-06T00:24:47.631Z,1004.82
2023-04-06T00:25:47.619Z,1004.81
2023-04-06T00:26:47.607Z,1004.86
2023-04-06T00:27:47.588Z,1004.82
2023-04-06T00:28:47.596Z,1004.88
2023-04-06T00:29:47.576Z,1004.81
2023-04-06T00:30:47.550Z,1004.81
2023-04-06T00:31:47.621Z,1004.83
2023-04-06T00:32:47.560Z,1004.79
2023-04-06T00:33:47.511Z,1004.73
2023-04-06T00:34:47.517Z,1004.75
2023-04-06T00:35:47.492Z,1004.70
2023-04-06T00:36:47.477Z,1004.67
2023-04-06T00:37:47.465Z,1004.72
2023-04-06T00:38:47.448Z,1004.74
2023-04-06T00:39:47.454Z,1004.71
2023-04-06T00:40:47.417Z,1004.74
2023-04-06T00:41:47.411Z,1004.72
2023-04-06T00:42:47.407Z,1004.68
2023-04-06T00:43:47.381Z,1004.67
2023-04-06T00:44:47.381Z,1004.70
2023-04-06T00:45:47.383Z,1004.71
2023-04-06T00:46:47.365Z,1004.70
2023-04-06T00:47:47.395Z,1004.66
2023-04-06T00:48:47.320Z,1004.69
2023-04-06T00:49:47.325Z,1004.63
2023-04-06T00:50:47.292Z,1004.69
2023-04-06T00:51:47.306Z,1004.68
2023-04-06T00:52:47.275Z,1004.70
2023-04-06T00:53:47.257Z,1004.69
2023-04-06T00:54:47.255Z,1004.66
2023-04-06T00:55:47.230Z,1004.66
2023-04-06T00:56:47.218Z,1004.61
2023-04-06T00:57:47.208Z,1004.60
2023-04-06T00:58:47.190Z,1004.59
2023-04-06T00:59:47.197Z,1004.60
2023-04-06T01:00:47.168Z,1004.60
2023-04-06T01:01:47.201Z,1004.60
2023-04-06T01:02:47.177Z,1004.56
2023-04-06T01:03:47.158Z,1004.55
2023-04-06T01:04:47.137Z,1004.58
2023-04-06T01:05:47.202Z,1004.60
2023-04-06T01:06:47.090Z,1004.59
2023-04-06T01:07:47.081Z,1004.55
2023-04-06T01:08:47.092Z,1004.60
2023-04-06T01:09:47.065Z,1004.55
2023-04-06T01:10:47.040Z,1004.50
2023-04-06T01:11:47.026Z,1004.53
2023-04-06T01:12:47.018Z,1004.49
2023-04-06T01:13:47.005Z,1004.44
2023-04-06T01:14:47.000Z,1004.47
2023-04-06T01:15:47.019Z,1004.43
2023-04-06T01:16:46.962Z,1004.49
2023-04-06T01:17:46.969Z,1004.52
2023-04-06T01:18:46.947Z,1004.40
2023-04-06T01:19:46.968Z,1004.49
2023-04-06T01:20:46.914Z,1004.50
2023-04-06T01:21:46.901Z,1004.43
2023-04-06T01:22:46.885Z,1004.46
2023-04-06T01:23:46.879Z,1004.44
2023-04-06T01:24:46.888Z,1004.40
2023-04-06T01:25:46.855Z,1004.37
2023-04-06T01:26:46.840Z,1004.40
2023-04-06T01:27:46.828Z,1004.40
2023-04-06T01:28:46.814Z,1004.39
2023-04-06T01:29:46.817Z,1004.36
2023-04-06T01:30:46.786Z,1004.36
2023-04-06T01:31:46.869Z,1004.30
2023-04-06T01:32:46.833Z,1004.33
2023-04-06T01:33:46.754Z,1004.34
2023-04-06T01:34:46.760Z,1004.34
2023-04-06T01:35:46.761Z,1004.30
2023-04-06T01:36:46.711Z,1004.38
2023-04-06T01:37:46.705Z,1004.33
2023-04-06T01:38:46.701Z,1004.33
2023-04-06T01:39:46.750Z,1004.37
2023-04-06T01:40:46.702Z,1004.34
2023-04-06T01:41:46.657Z,1004.34
2023-04-06T01:42:46.627Z,1004.32
2023-04-06T01:43:46.618Z,1004.35
2023-04-06T01:44:46.651Z,1004.36
2023-04-06T01:45:46.616Z,1004.25
2023-04-06T01:46:46.664Z,1004.32
2023-04-06T01:47:46.629Z,1004.36
2023-04-06T01:48:46.550Z,1004.30
2023-04-06T01:49:46.553Z,1004.24
2023-04-06T01:50:46.546Z,1004.25
2023-04-06T01:51:46.537Z,1004.23
2023-04-06T01:52:46.508Z,1004.26
2023-04-06T01:53:46.486Z,1004.31
2023-04-06T01:54:46.489Z,1004.25
2023-04-06T01:55:46.470Z,1004.27
2023-04-06T01:56:46.448Z,1004.29
2023-04-06T01:57:46.434Z,1004.25
2023-04-06T01:58:46.417Z,1004.20
2023-04-06T01:59:46.427Z,1004.28
2023-04-06T02:00:46.414Z,1004.22
2023-04-06T02:01:46.406Z,1004.24
2023-04-06T02:02:46.394Z,1004.26
2023-04-06T02:03:46.360Z,1004.24
2023-04-06T02:04:46.385Z,1004.22
2023-04-06T02:05:46.338Z,1004.31
2023-04-06T02:06:46.329Z,1004.23
2023-04-06T02:07:46.336Z,1004.26
2023-04-06T02:08:46.305Z,1004.24
2023-04-06T02:09:46.286Z,1004.17
2023-04-06T02:10:46.288Z,1004.19
2023-04-06T02:11:46.254Z,1004.23
2023-04-06T02:12:46.249Z,1004.27
2023-04-06T02:13:46.233Z,1004.25
2023-04-06T02:14:46.221Z,1004.25
2023-04-06T02:15:46.226Z,1004.27
2023-04-06T02:16:46.235Z,1004.24
2023-04-06T02:17:46.210Z,1004.22
2023-04-06T02:18:46.186Z,1004.26
2023-04-06T02:19:46.157Z,1004.24
2023-04-06T02:20:46.154Z,1004.24
2023-04-06T02:21:46.134Z,1004.24
2023-04-06T02:22:46.112Z,1004.22
2023-04-06T02:23:46.138Z,1004.21
2023-04-06T02:24:46.087Z,1004.23
2023-04-06T02:25:46.095Z,1004.24
2023-04-06T02:26:46.060Z,1004.21
2023-04-06T02:27:46.050Z,1004.22
2023-04-06T02:28:46.035Z,1004.23
2023-04-06T02:29:46.036Z,1004.19
2023-04-06T02:30:46.037Z,1004.22
2023-04-06T02:31:46.034Z,1004.18
2023-04-06T02:32:46.013Z,1004.15
2023-04-06T02:33:45.971Z,1004.15
2023-04-06T02:34:45.958Z,1004.16
2023-04-06T02:35:46.021Z,1004.14
2023-04-06T02:36:45.930Z,1004.15
2023-04-06T02:37:45.940Z,1004.15
2023-04-06T02:38:45.912Z,1004.12
2023-04-06T02:39:45.920Z,1004.12
2023-04-06T02:40:45.898Z,1004.16
2023-04-06T02:41:45.869Z,1004.11
2023-04-06T02:42:45.862Z,1004.12
2023-04-06T02:43:45.845Z,1004.15
2023-04-06T02:44:45.828Z,1004.10
2023-04-06T02:45:45.897Z,1004.13
2023-04-06T02:46:45.803Z,1004.11
2023-04-06T02:47:45.825Z,1004.09
2023-04-06T02:48:45.777Z,1004.06
2023-04-06T02:49:48.070Z,1004.08
2023-04-06T02:50:45.763Z,1004.02
2023-04-06T02:51:45.742Z,1004.08
2023-04-06T02:52:45.726Z,1004.03
2023-04-06T02:53:45.728Z,1004.09
2023-04-06T02:54:45.708Z,1004.06
2023-04-06T02:55:45.721Z,1004.07
2023-04-06T02:56:45.676Z,1004.10
2023-04-06T02:57:45.668Z,1004.10
2023-04-06T02:58:45.657Z,1004.07
2023-04-06T02:59:45.773Z,1004.09
2023-04-06T03:00:45.668Z,1004.11
2023-04-06T03:01:45.641Z,1004.09
2023-04-06T03:02:45.688Z,1004.12
2023-04-06T03:03:45.776Z,1004.08
2023-04-06T03:04:45.578Z,1004.06
2023-04-06T03:05:45.576Z,1004.07
2023-04-06T03:06:45.543Z,1004.02
2023-04-06T03:07:45.536Z,1004.06
2023-04-06T03:08:45.520Z,1004.07
2023-04-06T03:09:45.505Z,1004.05
2023-04-06T03:10:45.518Z,1004.04
2023-04-06T03:11:45.525Z,1004.11
2023-04-06T03:12:45.473Z,1004.03
2023-04-06T03:13:45.459Z,1004.00
2023-04-06T03:14:45.440Z,1004.09
2023-04-06T03:15:45.488Z,1004.07
2023-04-06T03:16:45.421Z,1004.08
2023-04-06T03:17:45.436Z,1004.09
2023-04-06T03:18:45.390Z,1004.11
2023-04-06T03:19:45.385Z,1004.11
2023-04-06T03:20:45.375Z,1004.12
2023-04-06T03:21:45.351Z,1004.07
2023-04-06T03:22:45.333Z,1004.05
2023-04-06T03:23:45.321Z,1004.15
2023-04-06T03:24:45.312Z,1004.07
2023-04-06T03:25:45.310Z,1004.20
2023-04-06T03:26:45.283Z,1004.21
2023-04-06T03:27:45.298Z,1004.18
2023-04-06T03:28:45.258Z,1004.24
2023-04-06T03:29:45.265Z,1004.19
2023-04-06T03:30:45.234Z,1004.21
2023-04-06T03:31:45.332Z,1004.21
2023-04-06T03:32:45.232Z,1004.14
2023-04-06T03:33:45.191Z,1004.16
2023-04-06T03:34:45.208Z,1004.16
2023-04-06T03:35:45.246Z,1004.22
2023-04-06T03:36:45.154Z,1004.24
2023-04-06T03:37:45.142Z,1004.25
2023-04-06T03:38:45.127Z,1004.32
2023-04-06T03:39:45.115Z,1004.27
2023-04-06T03:40:45.121Z,1004.28
2023-04-06T03:41:45.090Z,1004.24
2023-04-06T03:42:45.099Z,1004.31
2023-04-06T03:43:45.082Z,1004.25
2023-04-06T03:44:45.050Z,1004.23
2023-04-06T03:45:45.105Z,1004.25
2023-04-06T03:46:45.119Z,1004.26
2023-04-06T03:47:45.061Z,1004.31
2023-04-06T03:48:44.996Z,1004.28
2023-04-06T03:49:44.992Z,1004.32
2023-04-06T03:50:44.987Z,1004.29
2023-04-06T03:51:44.959Z,1004.27
2023-04-06T03:52:44.941Z,1004.25
2023-04-06T03:53:44.929Z,1004.31
2023-04-06T03:54:44.916Z,1004.28
2023-04-06T03:55:44.918Z,1004.27
2023-04-06T03:56:44.897Z,1004.26
2023-04-06T03:57:44.878Z,1004.29
2023-04-06T03:58:44.871Z,1004.34
2023-04-06T03:59:44.899Z,1004.32
2023-04-06T04:00:44.857Z,1004.31
2023-04-06T04:01:44.856Z,1004.33
2023-04-06T04:02:44.911Z,1004.33
2023-04-06T04:03:44.975Z,1004.35
2023-04-06T04:04:44.831Z,1004.33
2023-04-06T04:05:44.780Z,1004.34
2023-04-06T04:06:44.780Z,1004.36
2023-04-06T04:07:44.761Z,1004.29
2023-04-06T04:08:44.753Z,1004.30
2023-04-06T04:09:44.757Z,1004.35
2023-04-06T04:10:44.718Z,1004.40
2023-04-06T04:11:44.704Z,1004.33
2023-04-06T04:12:44.681Z,1004.37
2023-04-06T04:13:44.672Z,1004.35
2023-04-06T04:14:44.688Z,1004.35
2023-04-06T04:15:44.664Z,1004.37
2023-04-06T04:16:44.697Z,1004.36
2023-04-06T04:17:44.647Z,1004.34
2023-04-06T04:18:44.698Z,1004.39
2023-04-06T04:19:44.611Z,1004.39
2023-04-06T04:20:44.586Z,1004.40
2023-04-06T04:21:44.590Z,1004.40
2023-04-06T04:22:44.563Z,1004.36
2023-04-06T04:23:44.539Z,1004.32
2023-04-06T04:24:44.546Z,1004.37
2023-04-06T04:25:44.520Z,1004.41
2023-04-06T04:26:44.506Z,1004.35
2023-04-06T04:27:44.492Z,1004.38
2023-04-06T04:28:44.487Z,1004.36
2023-04-06T04:29:44.483Z,1004.39
2023-04-06T04:30:44.469Z,1004.42
2023-04-06T04:31:44.513Z,1004.46
2023-04-06T04:32:44.452Z,1004.41
2023-04-06T04:33:44.416Z,1004.49
2023-04-06T04:34:44.440Z,1004.43
2023-04-06T04:35:44.404Z,1004.42
2023-04-06T04:36:44.383Z,1004.44
2023-04-06T04:37:44.367Z,1004.47
2023-04-06T04:38:44.361Z,1004.46
2023-04-06T04:39:44.346Z,1004.40
2023-04-06T04:40:44.351Z,1004.43
2023-04-06T04:41:44.317Z,1004.38
2023-04-06T04:42:44.321Z,1004.45
2023-04-06T04:43:44.291Z,1004.41
2023-04-06T04:44:44.280Z,1004.40
2023-04-06T04:45:44.363Z,1004.34
2023-04-06T04:46:44.268Z,1004.36
2023-04-06T04:47:44.346Z,1004.37
2023-04-06T04:48:44.233Z,1004.41
2023-04-06T04:49:44.214Z,1004.43
2023-04-06T04:50:44.226Z,1004.40
2023-04-06T04:51:44.192Z,1004.50
2023-04-06T04:52:44.177Z,1004.44
2023-04-06T04:53:44.189Z,1004.42
2023-04-06T04:54:44.164Z,1004.41
2023-04-06T04:55:44.157Z,1004.51
2023-04-06T04:56:44.177Z,1004.47
2023-04-06T04:57:44.114Z,1004.51
2023-04-06T04:58:44.103Z,1004.48
2023-04-06T04:59:44.090Z,1004.44
2023-04-06T05:00:44.136Z,1004.49
2023-04-06T05:01:54.301Z,1004.48
2023-04-06T05:02:44.109Z,1004.51
2023-04-06T05:03:44.228Z,1004.54
2023-04-06T05:04:44.028Z,1004.54
2023-04-06T05:05:44.027Z,1004.49
2023-04-06T05:06:44.006Z,1004.52
2023-04-06T05:07:43.986Z,1004.48
2023-04-06T05:08:44.057Z,1004.54
2023-04-06T05:09:43.959Z,1004.45
2023-04-06T05:10:43.961Z,1004.44
2023-04-06T05:11:43.935Z,1004.53
2023-04-06T05:12:43.924Z,1004.49
2023-04-06T05:13:43.906Z,1004.46
2023-04-06T05:14:43.898Z,1004.44
2023-04-06T05:15:43.938Z,1004.47
2023-04-06T05:16:43.871Z,1004.48
2023-04-06T05:17:43.954Z,1004.47
2023-04-06T05:18:43.847Z,1004.47
2023-04-06T05:19:43.878Z,1004.48
2023-04-06T05:20:43.868Z,1004.51
2023-04-06T05:21:43.809Z,1004.56
2023-04-06T05:22:43.797Z,1004.60
2023-04-06T05:23:43.780Z,1004.60
2023-04-06T05:24:43.770Z,1004.60
2023-04-06T05:25:43.754Z,1004.57
2023-04-06T05:26:43.755Z,1004.59
2023-04-06T05:27:43.728Z,1004.64
2023-04-06T05:28:43.724Z,1004.61
2023-04-06T05:29:43.714Z,1004.64
2023-04-06T05:30:43.700Z,1004.66
2023-04-06T05:31:43.762Z,1004.63
2023-04-06T05:32:43.768Z,1004.65
2023-04-06T05:33:43.665Z,1004.65
2023-04-06T05:34:43.641Z,1004.71
2023-04-06T05:35:43.678Z,1004.70
2023-04-06T05:36:43.633Z,1004.67
2023-04-06T05:37:43.604Z,1004.67
2023-04-06T05:38:43.588Z,1004.72
2023-04-06T05:39:43.570Z,1004.76
2023-04-06T05:40:43.557Z,1004.69
2023-04-06T05:41:43.559Z,1004.71
2023-04-06T05:42:43.612Z,1004.71
2023-04-06T05:43:43.518Z,1004.74
2023-04-06T05:44:43.529Z,1004.66
2023-04-06T05:45:43.498Z,1004.70
2023-04-06T05:46:43.523Z,1004.70
2023-04-06T05:47:43.479Z,1004.71
2023-04-06T05:48:43.466Z,1004.75
2023-04-06T05:49:43.456Z,1004.74
2023-04-06T05:50:43.430Z,1004.76
2023-04-06T05:51:43.502Z,1004.72
2023-04-06T05:52:43.400Z,1004.75
2023-04-06T05:53:43.396Z,1004.68
2023-04-06T05:54:43.376Z,1004.74
2023-04-06T05:55:43.363Z,1004.72
2023-04-06T05:56:43.412Z,1004.73
2023-04-06T05:57:43.348Z,1004.61
2023-04-06T05:58:43.326Z,1004.63
2023-04-06T05:59:43.336Z,1004.62
2023-04-06T06:00:43.320Z,1004.61
2023-04-06T06:01:43.307Z,1004.70
2023-04-06T06:02:43.401Z,1004.66
2023-04-06T06:03:43.253Z,1004.66
2023-04-06T06:04:43.289Z,1004.66
2023-04-06T06:05:43.224Z,1004.68
2023-04-06T06:06:43.228Z,1004.71
2023-04-06T06:07:43.225Z,1004.68
2023-04-06T06:08:43.195Z,1004.73
2023-04-06T06:09:43.186Z,1004.71
2023-04-06T06:10:43.165Z,1004.79
2023-04-06T06:11:43.161Z,1004.70
2023-04-06T06:12:43.155Z,1004.72
2023-04-06T06:13:43.123Z,1004.71
2023-04-06T06:14:43.118Z,1004.69
2023-04-06T06:15:43.097Z,1004.69
2023-04-06T06:16:43.122Z,1004.70
2023-04-06T06:17:43.128Z,1004.70
2023-04-06T06:18:43.064Z,1004.73
2023-04-06T06:19:43.048Z,1004.73
2023-04-06T06:20:43.038Z,1004.72
2023-04-06T06:21:43.036Z,1004.68
2023-04-06T06:22:43.009Z,1004.59
2023-04-06T06:23:43.024Z,1004.63
2023-04-06T06:24:43.000Z,1004.69
2023-04-06T06:25:42.973Z,1004.68
2023-04-06T06:26:42.971Z,1004.70
2023-04-06T06:27:42.945Z,1004.71
2023-04-06T06:28:42.926Z,1004.71
2023-04-06T06:29:42.914Z,1004.72
2023-04-06T06:30:42.906Z,1004.69
2023-04-06T06:31:42.942Z,1004.74
2023-04-06T06:32:43.123Z,1004.74
2023-04-06T06:33:42.861Z,1004.73
2023-04-06T06:34:42.852Z,1004.72
2023-04-06T06:35:42.882Z,1004.70
2023-04-06T06:36:42.845Z,1004.71
2023-04-06T06:37:42.809Z,1004.72
2023-04-06T06:38:42.814Z,1004.66
2023-04-06T06:39:42.807Z,1004.69
2023-04-06T06:40:42.787Z,1004.72
2023-04-06T06:41:42.774Z,1004.72
2023-04-06T06:42:42.763Z,1004.70
2023-04-06T06:43:42.738Z,1004.75
2023-04-06T06:44:42.773Z,1004.75
2023-04-06T06:45:42.811Z,1004.74
2023-04-06T06:46:42.713Z,1004.78
2023-04-06T06:47:42.733Z,1004.75
2023-04-06T06:48:42.683Z,1004.80
2023-04-06T06:49:42.659Z,1004.70
2023-04-06T06:50:42.645Z,1004.74
2023-04-06T06:51:42.656Z,1004.70
2023-04-06T06:52:42.624Z,1004.76
2023-04-06T06:53:42.615Z,1004.77
2023-04-06T06:54:42.596Z,1004.72
2023-04-06T06:55:42.616Z,1004.78
2023-04-06T06:56:42.598Z,1004.77
2023-04-06T06:57:42.551Z,1004.79
2023-04-06T06:58:42.552Z,1004.81
2023-04-06T06:59:42.652Z,1004.77
2023-04-06T07:00:42.649Z,1004.80
2023-04-06T07:01:42.754Z,1004.75
2023-04-06T07:02:42.559Z,1004.74
2023-04-06T07:03:42.488Z,1004.77
2023-04-06T07:04:42.534Z,1004.62
2023-04-06T07:05:42.462Z,1004.68
2023-04-06T07:06:42.486Z,1004.64
2023-04-06T07:07:42.431Z,1004.69
2023-04-06T07:08:42.404Z,1004.77
2023-04-06T07:09:42.394Z,1004.75
2023-04-06T07:10:42.395Z,1004.68
2023-04-06T07:11:42.399Z,1004.75
2023-04-06T07:12:42.386Z,1004.78
2023-04-06T07:13:42.343Z,1004.77
2023-04-06T07:14:42.350Z,1004.66
2023-04-06T07:15:42.329Z,1004.74
2023-04-06T07:16:42.362Z,1004.72
2023-04-06T07:17:42.396Z,1004.76
2023-04-06T07:18:42.281Z,1004.80
2023-04-06T07:19:42.265Z,1004.76
2023-04-06T07:20:42.253Z,1004.77
2023-04-06T07:21:42.264Z,1004.78
2023-04-06T07:22:42.226Z,1004.74
2023-04-06T07:23:42.245Z,1004.75
2023-04-06T07:24:42.194Z,1004.85
2023-04-06T07:25:42.179Z,1004.76
2023-04-06T07:26:42.201Z,1004.75
2023-04-06T07:27:42.191Z,1004.79
2023-04-06T07:28:42.141Z,1004.79
2023-04-06T07:29:42.121Z,1004.78
2023-04-06T07:30:42.121Z,1004.81
2023-04-06T07:31:42.158Z,1004.74
2023-04-06T07:32:42.120Z,1004.86
2023-04-06T07:33:42.087Z,1004.74
2023-04-06T07:34:42.057Z,1004.79
2023-04-06T07:35:42.135Z,1004.81
2023-04-06T07:36:42.059Z,1004.77
2023-04-06T07:37:42.021Z,1004.78
2023-04-06T07:38:42.014Z,1004.75
2023-04-06T07:39:41.990Z,1004.74
2023-04-06T07:40:41.987Z,1004.75
2023-04-06T07:41:41.988Z,1004.77
2023-04-06T07:42:41.954Z,1004.77
2023-04-06T07:43:41.965Z,1004.78
2023-04-06T07:44:41.929Z,1004.76
2023-04-06T07:45:41.962Z,1004.70
2023-04-06T07:46:41.909Z,1004.78
2023-04-06T07:47:41.943Z,1004.74
2023-04-06T07:48:41.883Z,1004.77
2023-04-06T07:49:41.858Z,1004.71
2023-04-06T07:50:41.847Z,1004.81
2023-04-06T07:51:41.831Z,1004.76
2023-04-06T07:52:41.833Z,1004.82
2023-04-06T07:53:41.815Z,1004.80
2023-04-06T07:54:41.791Z,1004.80
2023-04-06T07:55:41.780Z,1004.80
2023-04-06T07:56:41.782Z,1004.79
2023-04-06T07:57:41.766Z,1004.76
2023-04-06T07:58:41.743Z,1004.77
2023-04-06T07:59:41.790Z,1004.77
2023-04-06T08:00:41.716Z,1004.80
2023-04-06T08:01:41.699Z,1004.77
2023-04-06T08:02:41.798Z,1004.79
2023-04-06T08:03:41.788Z,1004.82
2023-04-06T08:04:43.368Z,1004.75
2023-04-06T08:05:41.644Z,1004.82
2023-04-06T08:06:41.631Z,1004.75
2023-04-06T08:07:41.637Z,1004.81
2023-04-06T08:08:41.606Z,1004.82
2023-04-06T08:09:41.607Z,1004.72
2023-04-06T08:10:41.614Z,1004.78
2023-04-06T08:11:41.565Z,1004.80
2023-04-06T08:12:41.572Z,1004.81
2023-04-06T08:13:41.573Z,1004.78
2023-04-06T08:14:41.525Z,1004.77
2023-04-06T08:15:41.550Z,1004.76
2023-04-06T08:16:41.498Z,1004.77
2023-04-06T08:17:41.545Z,1004.77
2023-04-06T08:18:41.480Z,1004.75
2023-04-06T08:19:41.468Z,1004.83
2023-04-06T08:20:41.442Z,1004.80
2023-04-06T08:21:41.432Z,1004.82
2023-04-06T08:22:41.458Z,1004.82
2023-04-06T08:23:41.410Z,1004.82
2023-04-06T08:24:41.392Z,1004.81
2023-04-06T08:25:41.395Z,1004.83
2023-04-06T08:26:41.361Z,1004.88
2023-04-06T08:27:41.366Z,1004.79
2023-04-06T08:28:41.344Z,1004.84
2023-04-06T08:29:41.361Z,1004.86
2023-04-06T08:30:41.315Z,1004.87
2023-04-06T08:31:41.438Z,1004.84
2023-04-06T08:32:41.332Z,1004.91
2023-04-06T08:33:41.274Z,1004.89
2023-04-06T08:34:41.261Z,1004.89
2023-04-06T08:35:41.327Z,1004.93
2023-04-06T08:36:41.234Z,1004.90
2023-04-06T08:37:41.236Z,1004.92
2023-04-06T08:38:41.207Z,1004.92
2023-04-06T08:39:41.203Z,1004.83
2023-04-06T08:40:41.193Z,1004.83
2023-04-06T08:41:41.170Z,1004.81
2023-04-06T08:42:41.170Z,1004.84
2023-04-06T08:43:41.160Z,1004.81
2023-04-06T08:44:41.147Z,1004.83
2023-04-06T08:45:41.117Z,1004.81
2023-04-06T08:46:41.135Z,1004.83
2023-04-06T08:47:41.149Z,1004.86
2023-04-06T08:48:41.092Z,1004.91
2023-04-06T08:49:41.085Z,1004.92
2023-04-06T08:50:41.062Z,1004.99
2023-04-06T08:51:41.043Z,1004.96
2023-04-06T08:52:41.054Z,1004.95
2023-04-06T08:53:41.015Z,1004.95
2023-04-06T08:54:40.999Z,1004.89
2023-04-06T08:55:40.988Z,1004.89
2023-04-06T08:56:40.969Z,1004.89
2023-04-06T08:57:40.963Z,1004.85
2023-04-06T08:58:40.960Z,1004.84
2023-04-06T08:59:40.990Z,1004.84
2023-04-06T09:00:40.933Z,1004.92
2023-04-06T09:01:41.013Z,1004.83
2023-04-06T09:02:40.953Z,1004.91
2023-04-06T09:03:41.261Z,1004.84
2023-04-06T09:04:41.008Z,1004.85
2023-04-06T09:05:40.873Z,1004.84
2023-04-06T09:06:40.849Z,1004.81
2023-04-06T09:07:40.847Z,1004.83
2023-04-06T09:08:40.835Z,1004.88
2023-04-06T09:09:40.851Z,1004.83
2023-04-06T09:10:40.794Z,1004.80
2023-04-06T09:11:40.779Z,1004.78
2023-04-06T09:12:40.763Z,1004.79
2023-04-06T09:13:40.788Z,1004.77
2023-04-06T09:14:40.735Z,1004.79
2023-04-06T09:15:40.799Z,1004.75
2023-04-06T09:16:40.789Z,1004.84
2023-04-06T09:17:40.733Z,1004.71
2023-04-06T09:18:40.698Z,1004.67
2023-04-06T09:19:40.774Z,1004.64
2023-04-06T09:20:40.676Z,1004.61
2023-04-06T09:21:40.657Z,1004.63
2023-04-06T09:22:40.696Z,1004.65
2023-04-06T09:23:40.701Z,1004.81
2023-04-06T09:24:40.631Z,1004.82
2023-04-06T09:25:40.605Z,1004.83
2023-04-06T09:26:40.646Z,1004.77
2023-04-06T09:27:40.581Z,1004.78
2023-04-06T09:28:40.574Z,1004.81
2023-04-06T09:29:40.556Z,1004.78
2023-04-06T09:30:40.535Z,1004.72
2023-04-06T09:31:40.579Z,1004.71
2023-04-06T09:32:40.578Z,1004.66
2023-04-06T09:33:40.516Z,1004.66
2023-04-06T09:34:40.504Z,1004.76
2023-04-06T09:35:40.538Z,1004.69
2023-04-06T09:36:40.464Z,1004.75
2023-04-06T09:37:40.461Z,1004.72
2023-04-06T09:38:40.450Z,1004.72
2023-04-06T09:39:40.419Z,1004.67
2023-04-06T09:40:50.859Z,1004.68
2023-04-06T09:41:41.392Z,1004.76
2023-04-06T09:42:40.374Z,1004.65
2023-04-06T09:43:40.379Z,1004.76
2023-04-06T09:44:40.354Z,1004.70
2023-04-06T09:45:40.345Z,1004.66
2023-04-06T09:46:55.191Z,1004.69
2023-04-06T09:47:40.431Z,1004.63
2023-04-06T09:48:40.365Z,1004.60
2023-04-06T09:49:40.290Z,1004.64
2023-04-06T09:50:40.274Z,1004.62
2023-04-06T09:51:40.282Z,1004.68
2023-04-06T09:52:40.253Z,1004.62
2023-04-06T09:53:40.265Z,1004.61
2023-04-06T09:54:40.240Z,1004.69
2023-04-06T09:55:40.207Z,1004.57
2023-04-06T09:56:40.270Z,1004.63
2023-04-06T09:57:40.237Z,1004.54
2023-04-06T09:58:40.175Z,1004.61
2023-04-06T09:59:40.194Z,1004.57
2023-04-06T10:00:40.195Z,1004.55
2023-04-06T10:01:40.123Z,1004.64
2023-04-06T10:02:40.194Z,1004.64
2023-04-06T10:03:40.224Z,1004.65
2023-04-06T10:04:40.084Z,1004.56
2023-04-06T10:05:40.069Z,1004.55
2023-04-06T10:06:40.063Z,1004.52
2023-04-06T10:07:49.748Z,1004.58
2023-04-06T10:08:41.050Z,1004.60
2023-04-06T10:09:40.048Z,1004.55
2023-04-06T10:10:40.009Z,1004.53
2023-04-06T10:11:39.993Z,1004.63
2023-04-06T10:12:39.976Z,1004.64
2023-04-06T10:13:39.974Z,1004.57
2023-04-06T10:14:39.970Z,1004.59
2023-04-06T10:15:39.938Z,1004.57
2023-04-06T10:16:39.956Z,1004.62
2023-04-06T10:17:39.945Z,1004.56
2023-04-06T10:18:39.896Z,1004.57
2023-04-06T10:19:39.900Z,1004.51
2023-04-06T10:20:39.871Z,1004.53
2023-04-06T10:21:39.862Z,1004.46
2023-04-06T10:22:39.845Z,1004.49
2023-04-06T10:23:39.861Z,1004.48
2023-04-06T10:24:39.840Z,1004.43
2023-04-06T10:25:39.814Z,1004.48
2023-04-06T10:26:39.803Z,1004.44
2023-04-06T10:27:39.786Z,1004.40
2023-04-06T10:28:39.767Z,1004.41
2023-04-06T10:29:39.771Z,1004.41
2023-04-06T10:30:39.747Z,1004.38
2023-04-06T10:31:39.745Z,1004.44
2023-04-06T10:32:39.778Z,1004.45
2023-04-06T10:33:39.714Z,1004.40
2023-04-06T10:34:39.716Z,1004.39
2023-04-06T10:35:39.778Z,1004.33
2023-04-06T10:36:39.669Z,1004.30
2023-04-06T10:37:39.664Z,1004.34
2023-04-06T10:38:41.678Z,1004.39
2023-04-06T10:39:39.666Z,1004.51
2023-04-06T10:40:39.659Z,1004.41
2023-04-06T10:41:39.607Z,1004.45
2023-04-06T10:42:39.595Z,1004.45
2023-04-06T10:43:39.640Z,1004.42
2023-04-06T10:44:39.611Z,1004.34
2023-04-06T10:45:39.599Z,1004.29
2023-04-06T10:46:39.546Z,1004.31
2023-04-06T10:47:39.555Z,1004.29
2023-04-06T10:48:39.515Z,1004.27
2023-04-06T10:49:39.525Z,1004.22
2023-04-06T10:50:39.496Z,1004.24
2023-04-06T10:51:39.495Z,1004.16
2023-04-06T10:52:39.545Z,1004.27
2023-04-06T10:53:39.510Z,1004.26
2023-04-06T10:54:39.472Z,1004.23
2023-04-06T10:55:39.463Z,1004.26
2023-04-06T10:56:39.422Z,1004.27
2023-04-06T10:57:39.402Z,1004.24
2023-04-06T10:58:39.658Z,1004.11
2023-04-06T10:59:39.450Z,1004.26
2023-04-06T11:00:49.497Z,1004.18
2023-04-06T11:01:39.381Z,1004.21
2023-04-06T11:02:39.384Z,1004.20
2023-04-06T11:03:39.329Z,1004.22
2023-04-06T11:04:39.376Z,1004.17
2023-04-06T11:05:39.298Z,1004.20
2023-04-06T11:06:39.288Z,1004.25
2023-04-06T11:07:39.272Z,1004.20
2023-04-06T11:08:39.495Z,1004.15
2023-04-06T11:09:39.267Z,1004.21
2023-04-06T11:10:39.228Z,1004.22
2023-04-06T11:11:39.250Z,1004.11
2023-04-06T11:12:39.203Z,1004.12
2023-04-06T11:13:39.189Z,1004.15
2023-04-06T11:14:39.195Z,1004.14
2023-04-06T11:15:39.584Z,1004.12
2023-04-06T11:16:39.159Z,1004.18
2023-04-06T11:17:39.261Z,1004.15
2023-04-06T11:18:39.416Z,1004.15
2023-04-06T11:19:39.131Z,1004.16
2023-04-06T11:20:39.095Z,1003.88
2023-04-06T11:21:39.087Z,1003.85
2023-04-06T11:22:39.071Z,1003.80
2023-04-06T11:23:39.058Z,1003.80
2023-04-06T11:24:39.056Z,1003.83
2023-04-06T11:25:39.575Z,1003.75
2023-04-06T11:26:39.035Z,1003.76
2023-04-06T11:27:39.026Z,1003.71
2023-04-06T11:28:39.215Z,1003.72
2023-04-06T11:29:38.999Z,1003.96
2023-04-06T11:30:39.008Z,1003.92
2023-04-06T11:31:39.154Z,1003.89
2023-04-06T11:32:39.033Z,1003.88
2023-04-06T11:33:38.929Z,1003.86
2023-04-06T11:34:38.916Z,1003.90
2023-04-06T11:35:38.929Z,1003.85
2023-04-06T11:36:38.888Z,1003.92
2023-04-06T11:37:38.878Z,1003.83
2023-04-06T11:38:38.935Z,1003.82
2023-04-06T11:39:38.851Z,1003.70
2023-04-06T11:40:38.853Z,1003.82
2023-04-06T11:41:38.826Z,1003.80
2023-04-06T11:42:38.812Z,1003.72
2023-04-06T11:43:38.825Z,1003.73
2023-04-06T11:44:38.790Z,1003.74
2023-04-06T11:45:38.798Z,1003.78
2023-04-06T11:46:38.756Z,1003.79
2023-04-06T11:47:38.838Z,1003.80
2023-04-06T11:48:38.959Z,1003.82
2023-04-06T11:49:38.731Z,1003.81
2023-04-06T11:50:38.725Z,1003.62
2023-04-06T11:51:38.717Z,1003.56
2023-04-06T11:52:38.686Z,1003.65
2023-04-06T11:53:38.685Z,1003.73
2023-04-06T11:54:38.936Z,1003.76
2023-04-06T11:55:38.665Z,1003.67
2023-04-06T11:56:38.631Z,1003.75
2023-04-06T11:57:38.617Z,1003.61
2023-04-06T11:58:38.705Z,1003.66
2023-04-06T11:59:38.735Z,1003.74
2023-04-06T12:00:38.592Z,1003.73
2023-04-06T12:01:39.348Z,1003.70
2023-04-06T12:02:38.611Z,1003.65
2023-04-06T12:03:38.707Z,1003.64
2023-04-06T12:04:38.592Z,1003.64
2023-04-06T12:05:38.540Z,1003.34